Terminal Aerodrome Forecast
Issued by NWS Central Illinois

Home | Current Version | Previous Version | Text Only | Print | Product List | Glossary On
Versions: 1 2 3 4 5 6 7 8 9 10 11 12 13 14
000
FTUS43 KILX 140500
TAFPIA
TAF
KPIA 140537Z 1406/1506 VRB04KT P6SM SCT080
      TEMPO 1410/1413 3SM BR
     FM141600 30010KT P6SM VCTS SCT035CB BKN120
     FM142200 32008KT P6SM SCT040=

USA.gov is the U.S. government's official web portal to all federal, state and local government web resources and services.